Time;durP1;ratioP1;P1;durP2;ratioP2;P2;SDS_P1;SDS_P2;PMS_P1;PMS_P2;Temp;Humidity;BMP_temperature;BMP_pressure;BME280_temperature;BME280_humidity;BME280_pressure;Samples;Min_cycle;Max_cycle;Signal;HPM_P1;HPM_P2
2023/10/05 00:02:10;;;;;;;;;4.50;4.50;;;;;17.56;53.86;102131.34;4938850;28;45506;-68
2023/10/05 00:04:41;;;;;;;;;3.75;3.00;;;;;17.86;54.49;102183.91;4943028;28;45577;-69
2023/10/05 00:07:19;;;;;;;;;5.00;5.00;;;;;17.85;54.11;102184.91;4948555;28;46032;-68
2023/10/05 00:09:45;;;;;;;;;8.33;5.67;;;;;17.89;54.26;102191.66;4947682;28;45507;-69
2023/10/05 00:12:20;;;;;;;;;7.33;4.33;;;;;17.87;54.29;102185.59;4948616;28;45249;-70
2023/10/05 00:14:48;;;;;;;;;5.33;3.00;;;;;17.84;54.22;102177.84;4946547;28;45387;-69
2023/10/05 00:17:19;;;;;;;;;4.00;4.00;;;;;17.76;54.40;102172.38;4946015;28;46911;-70
2023/10/05 00:19:44;;;;;;;;;5.75;4.50;;;;;17.80;54.58;102170.22;4948327;28;45734;-69
2023/10/05 00:22:09;;;;;;;;;5.50;2.50;;;;;17.72;54.28;102171.00;4949173;28;49465;-68
2023/10/05 00:24:36;;;;;;;;;4.00;1.50;;;;;17.73;54.56;102172.69;4940503;28;45316;-70
2023/10/05 00:27:04;;;;;;;;;4.25;4.00;;;;;17.69;54.57;102163.25;4956592;28;46631;-69
2023/10/05 00:29:40;;;;;;;;;7.25;4.50;;;;;17.62;54.48;102160.31;4939435;28;45215;-69
2023/10/05 00:32:09;;;;;;;;;4.33;4.00;;;;;17.70;54.93;102186.47;4944422;28;45245;-68
2023/10/05 00:34:35;;;;;;;;;6.00;3.50;;;;;17.73;54.76;102186.16;4948808;28;45441;-69
2023/10/05 00:37:00;;;;;;;;;3.00;3.00;;;;;17.62;54.94;102168.38;4945509;28;46574;-69
2023/10/05 00:39:30;;;;;;;;;4.33;3.00;;;;;17.67;54.62;102176.00;4944422;28;45380;-70
2023/10/05 00:44:30;;;;;;;;;6.33;4.00;;;;;17.64;55.14;102184.38;4944776;28;45322;-69
2023/10/05 00:47:00;;;;;;;;;3.50;3.50;;;;;17.63;55.00;102188.91;4948488;28;46747;-69
2023/10/05 00:49:30;;;;;;;;;5.67;5.67;;;;;17.63;55.07;102175.47;4941692;28;45394;-73
2023/10/05 00:52:06;;;;;;;;;8.25;8.25;;;;;17.62;55.23;102175.63;4945638;28;45263;-69
2023/10/05 00:54:34;;;;;;;;;24.00;20.00;;;;;17.61;55.24;102168.50;4951482;28;45457;-70
2023/10/05 00:57:05;;;;;;;;;23.00;19.33;;;;;17.56;55.17;102163.63;4940822;28;45555;-69
2023/10/05 00:59:32;;;;;;;;;26.33;20.67;;;;;17.49;55.03;102154.50;4942008;28;45256;-69
2023/10/05 01:02:04;;;;;;;;;14.00;11.75;;;;;17.42;55.23;102144.47;4934277;28;45585;-69
2023/10/05 01:07:18;;;;;;;;;10.33;8.33;;;;;17.34;55.71;102142.59;4954651;28;46578;-69
2023/10/05 01:10:21;;;;;;;;;7.00;7.00;;;;;17.45;55.81;102177.31;4942464;28;45428;-68
2023/10/05 01:12:47;;;;;;;;;4.00;1.33;;;;;17.49;55.65;102185.91;4941785;28;45548;-68
2023/10/05 01:15:21;;;;;;;;;5.00;4.00;;;;;17.47;55.51;102187.91;4959139;28;45343;-68
2023/10/05 01:17:52;;;;;;;;;3.33;2.67;;;;;17.47;55.70;102182.53;4944121;28;46062;-68
2023/10/05 01:22:45;;;;;;;;;4.00;4.00;;;;;17.44;55.72;102190.91;4943389;28;45509;-70
2023/10/05 01:25:13;;;;;;;;;3.75;3.75;;;;;17.12;55.53;102133.13;4942688;28;45479;-69
2023/10/05 01:27:44;;;;;;;;;3.00;3.00;;;;;17.46;55.52;102178.16;4951435;28;45907;-69
2023/10/05 01:30:14;;;;;;;;;3.67;3.67;;;;;17.43;55.55;102173.94;4955869;28;45458;-69
2023/10/05 01:32:41;;;;;;;;;5.00;5.00;;;;;17.36;55.60;102164.78;4947149;28;45484;-71
2023/10/05 01:35:09;;;;;;;;;3.67;3.00;;;;;17.43;55.49;102162.34;4956007;28;45251;-68
2023/10/05 01:37:37;;;;;;;;;5.25;3.00;;;;;17.43;55.59;102162.34;4952431;28;47264;-69
2023/10/05 01:40:12;;;;;;;;;4.00;3.67;;;;;17.41;55.92;102159.78;4949290;28;45445;-70
2023/10/05 01:42:40;;;;;;;;;4.00;4.00;;;;;17.38;55.67;102153.88;4954561;28;45378;-69
2023/10/05 01:45:07;;;;;;;;;4.67;4.67;;;;;17.37;56.07;102146.81;4949115;28;45509;-69
2023/10/05 01:47:32;;;;;;;;;4.67;3.67;;;;;17.31;55.70;102141.06;4944899;28;45754;-69
2023/10/05 01:49:57;;;;;;;;;6.00;3.67;;;;;16.96;56.20;102085.44;4942721;28;45451;-69
2023/10/05 01:52:23;;;;;;;;;4.00;4.00;;;;;17.26;56.49;102137.16;4947507;28;59037;-69
2023/10/05 01:54:48;;;;;;;;;5.00;4.00;;;;;17.33;56.16;102136.38;4955122;28;45474;-68
2023/10/05 01:57:16;;;;;;;;;4.00;4.00;;;;;17.30;56.21;102133.13;4955923;28;45748;-69
2023/10/05 01:59:42;;;;;;;;;6.00;6.00;;;;;17.36;56.54;102161.25;4946112;28;45279;-69
2023/10/05 02:02:11;;;;;;;;;5.00;5.00;;;;;17.25;56.40;102140.84;4938912;28;45399;-69
2023/10/05 02:04:49;;;;;;;;;3.00;3.00;;;;;17.34;56.25;102166.78;4940370;28;45622;-69
2023/10/05 02:07:18;;;;;;;;;4.00;4.00;;;;;17.36;56.37;102164.78;4941544;28;47113;-71
2023/10/05 02:09:44;;;;;;;;;5.00;3.67;;;;;17.37;55.87;102162.94;4945857;28;45406;-69
2023/10/05 02:12:10;;;;;;;;;4.00;4.00;;;;;17.02;56.00;102103.66;4947290;28;45271;-69
2023/10/05 02:14:39;;;;;;;;;4.00;4.00;;;;;17.34;55.86;102143.44;4951391;28;45558;-68
2023/10/05 02:17:06;;;;;;;;;3.00;3.00;;;;;17.42;56.19;102149.88;4958109;28;46880;-69
2023/10/05 02:19:31;;;;;;;;;4.00;2.67;;;;;17.41;56.25;102150.88;4947875;28;45331;-69
2023/10/05 02:21:58;;;;;;;;;3.50;3.50;;;;;17.41;56.29;102135.56;4940382;28;45244;-69
2023/10/05 02:24:25;;;;;;;;;4.00;4.00;;;;;17.32;56.36;102129.28;4947924;28;45497;-69
2023/10/05 02:27:09;;;;;;;;;5.00;4.67;;;;;17.28;56.20;102122.53;4952491;28;46784;-69
2023/10/05 02:29:34;;;;;;;;;6.67;5.67;;;;;17.40;56.28;102141.09;4942230;28;45436;-68
2023/10/05 02:34:44;;;;;;;;;4.67;4.67;;;;;17.38;55.84;102135.88;4950239;28;45289;-69
2023/10/05 02:37:11;;;;;;;;;6.33;5.00;;;;;17.41;56.42;102132.88;4944000;28;46739;-69
2023/10/05 02:39:37;;;;;;;;;5.25;3.25;;;;;17.42;56.24;102134.59;4942141;28;45353;-68
2023/10/05 02:42:11;;;;;;;;;3.25;3.00;;;;;17.35;56.09;102120.06;4953343;28;45517;-70
2023/10/05 02:44:38;;;;;;;;;6.33;5.67;;;;;17.38;56.27;102133.19;4949495;28;45640;-68
2023/10/05 02:47:08;;;;;;;;;3.67;3.67;;;;;17.40;56.21;102135.72;4950456;28;47928;-69
2023/10/05 02:49:39;;;;;;;;;6.00;3.00;;;;;17.43;55.73;102138.13;4950035;28;45483;-69
2023/10/05 02:52:06;;;;;;;;;5.00;3.00;;;;;17.42;56.36;102141.78;4945183;28;45252;-68
2023/10/05 02:54:31;;;;;;;;;5.67;4.33;;;;;17.22;56.34;102111.53;4947097;28;45335;-68
2023/10/05 02:56:57;;;;;;;;;4.33;3.67;;;;;17.36;56.29;102129.81;4939568;28;58049;-69
2023/10/05 02:59:29;;;;;;;;;4.33;4.00;;;;;17.35;56.50;102133.50;4947005;28;45328;-73
2023/10/05 03:02:00;;;;;;;;;7.00;4.00;;;;;17.35;56.27;102130.81;4958772;28;45484;-69
2023/10/05 03:04:44;;;;;;;;;6.00;5.00;;;;;17.40;56.35;102135.72;4958060;28;45431;-69
2023/10/05 03:07:09;;;;;;;;;4.00;3.00;;;;;17.27;56.26;102110.09;4943668;28;45676;-68
2023/10/05 03:09:35;;;;;;;;;5.00;4.00;;;;;17.44;56.35;102131.75;4941078;28;45609;-69
2023/10/05 03:12:00;;;;;;;;;6.00;5.00;;;;;17.41;56.49;102132.03;4947498;28;45460;-69
2023/10/05 03:14:27;;;;;;;;;5.67;4.00;;;;;17.15;56.29;102084.44;4938060;28;45326;-71
2023/10/05 03:16:56;;;;;;;;;3.50;3.50;;;;;17.44;56.40;102137.13;4949921;28;47499;-69
2023/10/05 03:19:22;;;;;;;;;5.25;5.00;;;;;17.42;56.57;102129.22;4957835;28;45676;-69
2023/10/05 03:21:49;;;;;;;;;6.00;4.00;;;;;17.44;56.35;102121.00;4957294;28;45585;-69
2023/10/05 03:24:14;;;;;;;;;4.00;4.00;;;;;17.45;56.18;102130.75;4953118;28;45612;-68
2023/10/05 03:26:43;;;;;;;;;5.25;3.00;;;;;17.45;56.58;102125.38;4946718;28;47453;-69
2023/10/05 03:29:11;;;;;;;;;5.67;4.67;;;;;17.26;56.25;102097.66;4939425;28;45452;-69
2023/10/05 03:34:26;;;;;;;;;3.25;3.25;;;;;17.23;56.28;102087.22;4951118;28;45343;-68
2023/10/05 03:36:53;;;;;;;;;3.33;3.33;;;;;17.39;56.60;102120.59;4948657;28;47490;-69
2023/10/05 03:39:18;;;;;;;;;3.33;3.33;;;;;17.06;56.48;102066.59;4943975;28;45522;-69
2023/10/05 03:41:44;;;;;;;;;4.67;3.00;;;;;17.42;56.40;102114.91;4939959;28;45435;-68
2023/10/05 03:44:15;;;;;;;;;3.50;3.50;;;;;17.35;56.57;102103.94;4937601;28;45320;-69
2023/10/05 03:46:46;;;;;;;;;3.50;3.50;;;;;17.39;56.57;102123.28;4945849;28;46711;-70
2023/10/05 03:49:15;;;;;;;;;7.25;5.00;;;;;17.36;56.72;102118.22;4939103;28;45329;-69
2023/10/05 03:51:50;;;;;;;;;4.00;4.00;;;;;17.39;56.55;102128.66;4939698;28;45330;-70
2023/10/05 03:54:21;;;;;;;;;3.75;3.75;;;;;17.15;56.28;102097.88;4939542;28;45276;-70
2023/10/05 03:56:50;;;;;;;;;4.00;4.00;;;;;17.36;56.68;102139.72;4946209;28;47860;-69
2023/10/05 03:59:16;;;;;;;;;3.00;3.00;;;;;17.26;56.78;102129.91;4939194;28;45405;-68
2023/10/05 04:01:42;;;;;;;;;4.00;4.00;;;;;17.33;56.75;102144.44;4946161;28;45252;-68
2023/10/05 04:04:08;;;;;;;;;5.33;5.33;;;;;17.32;56.74;102155.34;4938347;28;45595;-68
2023/10/05 04:06:34;;;;;;;;;4.67;4.67;;;;;17.31;56.87;102149.13;4952749;28;46830;-70
2023/10/05 04:08:59;;;;;;;;;5.00;4.00;;;;;17.29;56.86;102145.75;4938688;28;46016;-68
2023/10/05 04:11:27;;;;;;;;;3.67;3.00;;;;;17.20;57.03;102135.03;4953326;28;51573;-68
2023/10/05 04:13:54;;;;;;;;;5.00;4.00;;;;;17.25;57.00;102147.06;4950369;28;45327;-69
2023/10/05 04:16:22;;;;;;;;;2.00;2.00;;;;;16.88;57.08;102084.53;4947455;28;46571;-68
2023/10/05 04:18:50;;;;;;;;;4.67;4.67;;;;;17.19;57.41;102134.19;4949089;28;45336;-69
2023/10/05 04:21:18;;;;;;;;;4.67;3.67;;;;;17.17;57.41;102136.19;4941328;28;45273;-69
2023/10/05 04:23:46;;;;;;;;;5.00;4.00;;;;;17.20;57.06;102146.63;4948784;28;45343;-69
2023/10/05 04:26:11;;;;;;;;;2.00;1.67;;;;;17.17;57.20;102141.56;4949649;28;48002;-69
2023/10/05 04:28:51;;;;;;;;;4.00;3.00;;;;;17.17;56.56;102133.50;4955926;28;45420;-68
2023/10/05 04:31:21;;;;;;;;;2.33;2.33;;;;;16.86;56.73;102090.06;4956370;28;45291;-69
2023/10/05 04:33:47;;;;;;;;;3.33;3.33;;;;;17.16;56.95;102158.69;4942263;28;45561;-70
2023/10/05 04:36:13;;;;;;;;;4.00;4.00;;;;;17.17;56.76;102162.22;4944156;28;45761;-68
2023/10/05 04:38:38;;;;;;;;;4.00;4.00;;;;;16.84;56.79;102107.34;4942667;28;45490;-69
2023/10/05 04:41:04;;;;;;;;;3.00;3.00;;;;;17.13;56.97;102161.69;4944438;28;45594;-69
2023/10/05 04:43:30;;;;;;;;;5.33;3.00;;;;;16.86;56.72;102119.63;4952686;28;45497;-70
2023/10/05 04:45:55;;;;;;;;;3.00;3.00;;;;;17.11;57.12;102152.09;4943862;28;46429;-69
2023/10/05 04:48:23;;;;;;;;;3.67;2.67;;;;;17.06;57.00;102149.03;4941672;28;45519;-69
2023/10/05 04:50:49;;;;;;;;;4.00;4.00;;;;;16.97;57.01;102131.97;4924398;28;45478;-69
2023/10/05 04:53:15;;;;;;;;;3.50;3.00;;;;;17.01;56.81;102144.94;4951557;28;46216;-68
2023/10/05 04:55:42;;;;;;;;;2.67;2.67;;;;;16.98;56.94;102152.47;4946437;28;45436;-70
2023/10/05 04:58:20;;;;;;;;;3.00;3.00;;;;;16.95;56.97;102150.09;4941212;28;45674;-69
2023/10/05 05:08:34;;;;;;;;;5.67;5.00;;;;;16.73;57.60;102121.81;4945821;28;45202;-69
2023/10/05 05:11:00;;;;;;;;;2.50;2.50;;;;;16.69;57.48;102131.16;4952108;28;45275;-73
2023/10/05 05:13:27;;;;;;;;;4.50;2.75;;;;;16.65;57.58;102133.28;4942080;28;45592;-71
2023/10/05 05:15:53;;;;;;;;;3.00;3.00;;;;;16.63;57.60;102137.97;4951491;28;46848;-69
2023/10/05 05:18:19;;;;;;;;;6.00;2.00;;;;;16.67;57.73;102139.38;4943630;28;45583;-68
2023/10/05 05:20:45;;;;;;;;;5.33;2.00;;;;;16.60;57.99;102132.84;4947244;28;45558;-67
2023/10/05 05:23:13;;;;;;;;;4.33;3.33;;;;;16.66;57.99;102148.44;4940804;28;45501;-69
2023/10/05 05:25:38;;;;;;;;;4.33;4.00;;;;;16.64;58.46;102145.00;4947470;28;46131;-70
2023/10/05 05:28:05;;;;;;;;;6.25;5.25;;;;;16.61;58.46;102150.66;4938690;28;45354;-69
2023/10/05 05:30:32;;;;;;;;;4.00;4.00;;;;;16.60;58.74;102138.22;4940912;28;45279;-69
2023/10/05 05:32:57;;;;;;;;;5.75;4.75;;;;;16.24;58.67;102072.03;4948070;28;45416;-69
2023/10/05 05:35:23;;;;;;;;;5.67;4.33;;;;;16.15;58.89;102062.19;4955987;28;45642;-69
2023/10/05 05:37:49;;;;;;;;;5.75;5.75;;;;;16.42;59.13;102118.56;4940568;28;45224;-73
2023/10/05 05:40:14;;;;;;;;;4.00;4.00;;;;;16.53;59.40;102137.16;4948148;28;45189;-70
2023/10/05 05:42:40;;;;;;;;;8.67;4.67;;;;;16.42;59.18;102114.03;4951471;28;45463;-69
2023/10/05 05:45:15;;;;;;;;;6.33;6.33;;;;;16.51;59.41;102139.13;4952639;28;46293;-69
2023/10/05 05:47:40;;;;;;;;;6.33;5.67;;;;;16.50;59.29;102134.75;4943884;28;45429;-69
2023/10/05 05:50:08;;;;;;;;;5.25;4.25;;;;;16.47;59.55;102142.28;4951625;28;45299;-69
2023/10/05 05:52:34;;;;;;;;;5.00;5.00;;;;;16.41;59.57;102141.00;4941265;28;45483;-69
2023/10/05 05:55:09;;;;;;;;;5.50;5.00;;;;;16.41;59.45;102154.44;4946989;28;48005;-68
2023/10/05 05:57:35;;;;;;;;;5.00;5.00;;;;;16.38;59.75;102152.88;4955010;28;45447;-68
2023/10/05 06:00:10;;;;;;;;;11.50;5.75;;;;;16.41;60.08;102170.53;4953561;28;45552;-69
2023/10/05 06:02:39;;;;;;;;;8.50;7.00;;;;;16.42;59.61;102169.56;4941517;28;45643;-69
2023/10/05 06:05:08;;;;;;;;;4.25;4.25;;;;;16.13;59.88;102124.88;4947004;28;46285;-69
2023/10/05 06:07:33;;;;;;;;;8.00;7.00;;;;;16.43;59.70;102173.94;4950477;28;45552;-70
2023/10/05 06:09:58;;;;;;;;;5.33;5.00;;;;;16.11;60.09;102121.50;4945033;28;45407;-69
2023/10/05 06:12:24;;;;;;;;;6.33;6.33;;;;;16.39;60.06;102170.69;4955123;28;45602;-69
2023/10/05 06:14:49;;;;;;;;;6.67;6.67;;;;;16.45;60.00;102188.06;4947584;28;45838;-69
2023/10/05 06:17:14;;;;;;;;;9.00;8.00;;;;;16.43;59.97;102185.53;4953581;28;45529;-70
2023/10/05 06:19:40;;;;;;;;;9.00;6.67;;;;;16.38;59.98;102177.03;4952715;28;46737;-70
2023/10/05 06:22:06;;;;;;;;;5.00;5.00;;;;;16.49;59.90;102192.13;4953078;28;45614;-70
2023/10/05 06:24:32;;;;;;;;;7.67;7.67;;;;;16.52;60.14;102194.53;4956055;28;46475;-70
2023/10/05 06:27:00;;;;;;;;;5.00;4.25;;;;;16.43;60.26;102180.16;4951455;28;45485;-68
2023/10/05 06:29:25;;;;;;;;;4.00;4.00;;;;;16.59;59.83;102195.59;4947206;28;45493;-68
2023/10/05 06:31:51;;;;;;;;;8.33;8.33;;;;;16.65;59.88;102186.97;4948930;28;45163;-72
2023/10/05 06:34:16;;;;;;;;;5.00;5.00;;;;;16.73;59.60;102189.78;4954203;28;46338;-70
2023/10/05 06:36:42;;;;;;;;;5.00;5.00;;;;;16.52;59.51;102131.94;4955706;28;45608;-69
2023/10/05 06:39:14;;;;;;;;;7.33;7.33;;;;;16.85;59.25;102177.03;4944787;28;45466;-73
2023/10/05 06:41:40;;;;;;;;;6.33;5.33;;;;;16.96;58.98;102175.94;4939893;28;45478;-69
2023/10/05 06:44:07;;;;;;;;;10.00;9.00;;;;;17.02;58.47;102170.00;4946786;28;45433;-70
2023/10/05 06:46:33;;;;;;;;;5.33;5.33;;;;;16.75;58.77;102116.28;4938121;28;45333;-71
2023/10/05 06:48:58;;;;;;;;;8.33;7.00;;;;;17.06;59.00;102175.91;4932306;28;45343;-71
2023/10/05 06:51:28;;;;;;;;;7.67;7.67;;;;;17.12;58.70;102194.09;4949242;28;45490;-70
2023/10/05 06:53:55;;;;;;;;;7.00;5.25;;;;;16.80;58.23;102151.59;4941621;28;47367;-70
2023/10/05 06:56:21;;;;;;;;;9.50;6.75;;;;;17.14;58.45;102200.16;4950712;28;45424;-70
2023/10/05 06:58:47;;;;;;;;;5.75;5.25;;;;;17.10;58.55;102194.25;4951770;28;45387;-70
2023/10/05 07:01:13;;;;;;;;;6.50;6.50;;;;;17.24;58.14;102206.34;4958901;28;45363;-69
2023/10/05 07:03:38;;;;;;;;;6.67;5.67;;;;;17.16;57.84;102166.75;4961422;28;46116;-69
2023/10/05 07:06:04;;;;;;;;;10.50;6.75;;;;;17.43;57.72;102195.44;4954934;28;45372;-70
2023/10/05 07:08:30;;;;;;;;;7.67;7.67;;;;;17.49;57.29;102189.44;4958886;28;45506;-69
2023/10/05 07:10:56;;;;;;;;;8.33;6.00;;;;;17.67;56.97;102196.66;4957677;28;45475;-70
2023/10/05 07:13:22;;;;;;;;;7.00;5.75;;;;;17.78;56.36;102193.75;4950082;28;45756;-70
2023/10/05 07:15:48;;;;;;;;;9.25;5.00;;;;;17.94;56.35;102204.63;4956443;28;45578;-69
2023/10/05 07:18:15;;;;;;;;;8.33;7.33;;;;;18.12;56.01;102212.69;4946388;28;46490;-70
2023/10/05 07:20:41;;;;;;;;;7.00;7.00;;;;;17.90;55.71;102158.38;4951821;28;45502;-70
2023/10/05 07:23:07;;;;;;;;;10.67;9.33;;;;;18.27;55.50;102221.03;4955845;28;47236;-69
2023/10/05 07:25:33;;;;;;;;;11.00;9.33;;;;;17.90;55.43;102155.69;4956216;28;45522;-70
2023/10/05 07:27:59;;;;;;;;;8.67;7.67;;;;;18.43;55.12;102213.91;4947511;28;45362;-69
2023/10/05 07:30:24;;;;;;;;;12.33;8.67;;;;;18.69;54.95;102213.88;4950570;28;45284;-70
2023/10/05 07:32:50;;;;;;;;;11.33;8.00;;;;;19.04;53.68;102202.06;4932386;28;54385;-70
2023/10/05 07:35:15;;;;;;;;;8.75;7.25;;;;;19.35;52.50;102182.56;4947158;28;45532;-71
2023/10/05 07:37:44;;;;;;;;;9.00;7.67;;;;;19.91;51.82;102203.38;4939458;28;45631;-70
2023/10/05 07:40:13;;;;;;;;;10.75;8.25;;;;;20.30;51.05;102200.78;4966648;28;45621;-69
2023/10/05 07:42:39;;;;;;;;;14.00;12.67;;;;;20.81;49.81;102206.72;4937902;28;47575;-70
2023/10/05 07:45:13;;;;;;;;;8.75;8.00;;;;;21.23;48.85;102209.06;4937364;28;45345;-69
2023/10/05 07:47:46;;;;;;;;;9.00;9.00;;;;;21.53;47.73;102201.94;4940790;28;45564;-69
2023/10/05 07:50:12;;;;;;;;;12.50;9.75;;;;;21.90;46.80;102208.41;4951141;28;45585;-69
2023/10/05 07:52:39;;;;;;;;;7.67;7.67;;;;;22.38;46.03;102236.06;4957706;28;46679;-69
2023/10/05 07:55:10;;;;;;;;;11.67;11.33;;;;;22.62;45.13;102233.06;4951045;28;45394;-69
2023/10/05 07:57:36;;;;;;;;;6.00;6.00;;;;;22.77;44.88;102238.50;4938704;28;45250;-69
2023/10/05 08:00:03;;;;;;;;;10.33;9.00;;;;;22.41;44.98;102167.94;4953868;28;45478;-69
2023/10/05 08:02:29;;;;;;;;;11.67;10.67;;;;;22.33;44.77;102179.72;4945712;28;47053;-69
2023/10/05 08:04:54;;;;;;;;;11.33;8.00;;;;;22.32;45.44;102212.41;4928262;28;45572;-69
2023/10/05 08:07:20;;;;;;;;;10.00;9.00;;;;;21.94;45.40;102169.09;4921878;28;45373;-69
2023/10/05 08:09:45;;;;;;;;;9.75;9.00;;;;;21.86;46.10;102215.22;4945886;28;45585;-68
2023/10/05 08:12:15;;;;;;;;;11.67;9.33;;;;;21.72;46.20;102221.41;4940191;28;46306;-69
2023/10/05 08:14:40;;;;;;;;;10.67;8.67;;;;;21.58;46.67;102219.47;4940743;28;46066;-69
2023/10/05 08:17:05;;;;;;;;;10.33;10.33;;;;;21.58;46.47;102243.84;4952334;28;45414;-69
2023/10/05 08:19:31;;;;;;;;;7.33;7.33;;;;;21.40;46.35;102239.56;4946175;28;45557;-68
2023/10/05 08:21:56;;;;;;;;;9.00;8.00;;;;;21.24;47.14;102245.09;4954119;28;52206;-69
2023/10/05 08:24:25;;;;;;;;;11.00;8.00;;;;;21.05;47.28;102226.56;4954767;28;45406;-69
2023/10/05 08:26:57;;;;;;;;;9.67;8.33;;;;;21.04;47.72;102246.50;4956546;28;45525;-70
2023/10/05 08:29:22;;;;;;;;;8.33;8.00;;;;;21.07;47.55;102270.50;4942084;28;45855;-68
2023/10/05 08:31:52;;;;;;;;;10.00;8.33;;;;;20.96;47.99;102275.25;4958081;28;46049;-69
2023/10/05 08:34:21;;;;;;;;;10.33;9.00;;;;;20.99;48.03;102297.53;4943910;28;45363;-69
2023/10/05 08:36:53;;;;;;;;;15.00;13.00;;;;;20.82;47.91;102278.72;4944325;28;45463;-69
2023/10/05 08:39:25;;;;;;;;;13.00;10.67;;;;;20.85;48.07;102294.56;4937651;28;45516;-69
2023/10/05 08:41:55;;;;;;;;;8.67;8.67;;;;;20.84;48.19;102297.44;4936372;28;47977;-68
2023/10/05 08:44:26;;;;;;;;;10.33;7.33;;;;;20.91;48.07;102301.13;4945436;28;45251;-69
2023/10/05 08:46:55;;;;;;;;;10.33;10.33;;;;;20.68;48.10;102238.88;4937647;28;45336;-69
2023/10/05 08:49:23;;;;;;;;;11.67;9.00;;;;;20.62;48.21;102242.25;4920620;28;45491;-69
2023/10/05 08:51:50;;;;;;;;;13.33;7.00;;;;;20.82;48.21;102289.53;4951056;28;46636;-70
2023/10/05 08:54:16;;;;;;;;;12.33;7.67;;;;;20.80;48.29;102301.50;4948092;28;45577;-70
2023/10/05 08:56:47;;;;;;;;;8.67;7.33;;;;;20.75;48.48;102299.31;4953225;28;45461;-68
2023/10/05 08:59:13;;;;;;;;;16.00;13.00;;;;;20.69;48.41;102305.44;4949288;28;46430;-68
2023/10/05 09:01:43;;;;;;;;;9.00;8.00;;;;;20.62;48.63;102296.28;4955462;28;46042;-69
2023/10/05 09:06:52;;;;;;;;;13.33;11.67;;;;;20.31;48.77;102259.19;4955512;28;45267;-69
2023/10/05 09:09:27;;;;;;;;;9.67;9.67;;;;;20.57;48.91;102296.81;4956253;28;45482;-69
2023/10/05 09:11:56;;;;;;;;;11.33;8.00;;;;;20.33;48.44;102251.75;4936476;28;46756;-70
2023/10/05 09:14:38;;;;;;;;;6.50;5.00;;;;;20.60;47.72;102295.63;4951250;28;45501;-68
2023/10/05 09:17:07;;;;;;;;;15.25;7.50;;;;;20.42;48.46;102222.03;4952947;28;45498;-70
2023/10/05 09:19:33;;;;;;;;;8.75;7.25;;;;;20.98;47.89;102277.78;4948708;28;45257;-69
2023/10/05 09:24:28;;;;;;;;;9.25;7.25;;;;;21.64;46.65;102243.13;4957713;28;45343;-69
2023/10/05 09:27:19;;;;;;;;;8.33;8.33;;;;;22.11;45.36;102260.03;4955982;28;45369;-70
2023/10/05 09:29:45;;;;;;;;;9.75;8.75;;;;;22.33;45.13;102269.13;4956706;28;45503;-69
2023/10/05 09:32:22;;;;;;;;;12.33;12.33;;;;;22.64;44.71;102279.84;4948178;28;47050;-70
2023/10/05 09:34:51;;;;;;;;;10.67;10.33;;;;;23.10;42.79;102282.38;4946548;28;45521;-70
2023/10/05 09:37:18;;;;;;;;;11.50;8.50;;;;;23.50;42.48;102277.41;4948116;28;45293;-70
2023/10/05 09:39:53;;;;;;;;;10.00;7.50;;;;;23.74;41.52;102257.22;4952119;28;45609;-70
2023/10/05 09:42:26;;;;;;;;;6.75;6.50;;;;;24.15;41.39;102276.38;4943114;28;46904;-70
2023/10/05 09:45:01;;;;;;;;;7.00;7.00;;;;;24.42;40.83;102277.47;4944532;28;45469;-69
2023/10/05 09:47:33;;;;;;;;;18.33;15.00;;;;;24.31;40.47;102243.53;4949815;28;45581;-69
2023/10/05 09:50:09;;;;;;;;;8.25;5.00;;;;;24.52;39.83;102277.97;4951936;28;45316;-70
2023/10/05 09:52:36;;;;;;;;;9.25;7.50;;;;;24.54;39.01;102284.88;4948393;28;45736;-70
2023/10/05 09:55:06;;;;;;;;;7.00;5.00;;;;;24.50;38.71;102286.31;4940192;28;45260;-69
2023/10/05 09:57:40;;;;;;;;;2.25;2.25;;;;;24.34;38.08;102300.19;4947941;28;45377;-71
2023/10/05 10:00:11;;;;;;;;;3.50;2.25;;;;;23.95;38.46;102238.19;4952804;28;45542;-71
2023/10/05 10:02:40;;;;;;;;;7.75;4.00;;;;;24.16;38.80;102283.50;4957151;28;45872;-68
2023/10/05 10:05:26;;;;;;;;;5.75;4.00;;;;;23.98;38.72;102271.22;4946228;28;45505;-69
2023/10/05 10:07:57;;;;;;;;;6.00;3.50;;;;;23.94;39.14;102280.81;4946124;28;45397;-71
2023/10/05 10:10:25;;;;;;;;;6.50;5.25;;;;;23.75;39.56;102259.72;4943380;28;45181;-69
2023/10/05 10:12:52;;;;;;;;;3.50;3.50;;;;;23.56;39.32;102235.91;4947292;28;45856;-70
2023/10/05 10:15:32;;;;;;;;;4.00;3.75;;;;;23.48;39.44;102263.19;4940124;28;45454;-69
2023/10/05 10:18:34;;;;;;;;;6.00;3.75;;;;;23.11;39.48;102221.66;4940371;28;45368;-70
2023/10/05 10:20:51;;;;;;;;;3.00;3.00;;;;;23.00;39.61;102186.88;4941614;28;45273;-69
2023/10/05 10:23:35;;;;;;;;;3.00;3.00;;;;;23.31;39.13;102249.00;4945055;28;45884;-68
2023/10/05 10:26:16;;;;;;;;;7.00;6.50;;;;;23.36;39.67;102250.09;4935233;28;45797;-69
2023/10/05 10:31:18;;;;;;;;;4.00;3.00;;;;;23.28;39.34;102247.53;4958072;28;45438;-71
2023/10/05 10:33:51;;;;;;;;;5.50;3.00;;;;;23.16;39.53;102226.50;4951583;28;47471;-69
2023/10/05 10:36:46;;;;;;;;;6.25;4.00;;;;;23.04;40.12;102240.56;4946867;28;45438;-68
2023/10/05 10:39:24;;;;;;;;;3.25;2.50;;;;;22.87;40.48;102224.69;4939700;28;45536;-70
2023/10/05 10:42:18;;;;;;;;;6.00;5.00;;;;;22.72;40.57;102239.06;4943789;28;45513;-71
2023/10/05 10:47:14;;;;;;;;;9.67;9.33;;;;;22.49;41.43;102262.72;4947516;28;45482;-69
2023/10/05 10:49:40;;;;;;;;;5.75;5.25;;;;;22.10;41.51;102212.31;4939204;28;45362;-69
2023/10/05 10:52:09;;;;;;;;;6.25;6.25;;;;;22.34;41.99;102259.13;4939385;28;45354;-69
2023/10/05 10:54:40;;;;;;;;;6.33;5.33;;;;;22.33;41.88;102268.28;4946076;28;46407;-68
2023/10/05 10:57:06;;;;;;;;;6.33;6.33;;;;;22.27;41.86;102255.50;4947274;28;45582;-70
2023/10/05 10:59:41;;;;;;;;;7.00;7.00;;;;;21.95;41.92;102222.22;4957797;28;45283;-70
2023/10/05 11:02:12;;;;;;;;;4.00;4.00;;;;;22.11;42.10;102262.75;4949959;28;45436;-70
2023/10/05 11:04:39;;;;;;;;;13.00;11.33;;;;;;;;4941235;28;46855;-69
2023/10/05 11:07:05;;;;;;;;;6.25;5.00;;;;;22.01;41.36;102253.97;4956090;28;45577;-69
2023/10/05 11:09:35;;;;;;;;;6.25;4.75;;;;;21.91;41.06;102242.56;4944938;28;45640;-70
2023/10/05 11:12:10;;;;;;;;;9.67;6.00;;;;;21.96;41.50;102266.41;4947462;28;45234;-69
2023/10/05 11:14:43;;;;;;;;;6.75;4.00;;;;;21.70;42.22;102221.59;4952246;28;46133;-70
2023/10/05 11:17:34;;;;;;;;;8.50;7.25;;;;;21.97;42.10;102258.09;4945558;28;45424;-69
2023/10/05 11:20:11;;;;;;;;;11.67;10.33;;;;;21.89;41.81;102266.28;4937378;28;45488;-69
2023/10/05 11:22:42;;;;;;;;;9.33;8.00;;;;;21.90;42.08;102254.44;4943750;28;45417;-68
2023/10/05 11:25:14;;;;;;;;;7.50;5.00;;;;;21.84;41.49;102253.31;4940812;28;46501;-70
2023/10/05 11:27:44;;;;;;;;;5.50;5.00;;;;;21.38;41.81;102202.88;4943217;28;45485;-69
2023/10/05 11:30:18;;;;;;;;;6.25;5.50;;;;;21.65;41.68;102258.34;4937296;28;45527;-69
2023/10/05 11:32:45;;;;;;;;;6.25;4.00;;;;;21.65;42.53;102261.06;4946435;28;45490;-69
2023/10/05 11:35:28;;;;;;;;;7.50;6.50;;;;;21.65;42.37;102252.94;4938497;28;46675;-69
2023/10/05 11:38:03;;;;;;;;;7.25;5.00;;;;;21.70;42.00;102264.06;4956844;28;45445;-70
2023/10/05 11:40:43;;;;;;;;;8.33;8.33;;;;;21.71;41.82;102235.97;4949167;28;45346;-69
2023/10/05 11:43:13;;;;;;;;;6.50;5.00;;;;;21.73;41.74;102226.66;4942176;28;45431;-69
2023/10/05 11:45:54;;;;;;;;;7.75;5.25;;;;;21.72;42.10;102235.78;4932375;28;46855;-68
2023/10/05 11:48:20;;;;;;;;;7.25;6.25;;;;;21.47;41.75;102181.00;4947788;28;45319;-70
2023/10/05 11:50:51;;;;;;;;;5.25;5.00;;;;;21.63;41.86;102222.50;4938278;28;45312;-69
2023/10/05 11:53:20;;;;;;;;;4.00;4.00;;;;;21.48;42.09;102211.63;4946241;28;45426;-69
2023/10/05 11:55:49;;;;;;;;;4.00;4.00;;;;;21.56;42.68;102209.69;4938896;28;45923;-69
2023/10/05 11:58:15;;;;;;;;;7.50;5.75;;;;;21.60;42.53;102206.59;4946070;28;45500;-70
2023/10/05 12:00:42;;;;;;;;;9.25;5.25;;;;;21.61;42.44;102211.00;4941448;28;45357;-69
2023/10/05 12:03:09;;;;;;;;;7.00;6.00;;;;;21.62;41.73;102212.69;4939949;28;45569;-69
2023/10/05 12:05:34;;;;;;;;;7.50;5.75;;;;;21.44;41.71;102184.09;4940866;28;47635;-70